Time;durP1;ratioP1;P1;durP2;ratioP2;P2;SDS_P1;SDS_P2;PMS_P1;PMS_P2;Temp;Humidity;BMP_temperature;BMP_pressure;BME280_temperature;BME280_humidity;BME280_pressure;Samples;Min_cycle;Max_cycle;Signal;HPM_P1;HPM_P2
2022/11/01 00:01:40;;;;;;;;;;;;;;;21.33;64.89;99774.81;7283493;19;153787;-58
2022/11/01 00:04:07;;;;;;;;;;;;;;;21.36;64.20;99776.94;7282977;19;153699;-58
2022/11/01 00:06:35;;;;;;;;;;;;;;;21.37;64.06;99777.78;7281085;19;152110;-57
2022/11/01 00:09:02;;;;;;;;;;;;;;;21.38;64.08;99774.63;7280591;19;152601;-58
2022/11/01 00:11:29;;;;;;;;;;;;;;;21.41;63.40;99782.34;7281031;19;152186;-58
2022/11/01 00:13:56;;;;;;;;;;;;;;;21.43;63.19;99784.84;7281821;19;151988;-58
2022/11/01 00:16:24;;;;;;;;;;;;;;;21.45;63.05;99788.09;7280216;19;153275;-58
2022/11/01 00:18:51;;;;;;;;;;;;;;;21.46;62.64;99767.28;7285983;19;154670;-58
2022/11/01 00:21:18;;;;;;;;;;;;;;;21.45;62.46;99777.69;7283502;19;152541;-57
2022/11/01 00:23:45;;;;;;;;;;;;;;;21.48;62.29;99767.78;7281702;19;153398;-58
2022/11/01 00:26:15;;;;;;;;;;;;;;;21.49;61.91;99764.59;7281019;19;152249;-58
2022/11/01 00:28:41;;;;;;;;;;;;;;;21.50;61.98;99765.41;7281299;19;153471;-58
2022/11/01 00:31:09;;;;;;;;;;;;;;;21.52;62.00;99760.28;7279922;19;154161;-57
2022/11/01 00:33:38;;;;;;;;;;;;;;;21.51;61.73;99759.47;7281893;19;152218;-58
2022/11/01 00:36:06;;;;;;;;;;;;;;;21.52;61.66;99746.25;7282929;19;152887;-58
2022/11/01 00:38:33;;;;;;;;;;;;;;;21.52;61.37;99741.44;7278734;19;152399;-58
2022/11/01 00:41:02;;;;;;;;;;;;;;;21.54;61.18;99738.28;7289058;19;153173;-57
2022/11/01 00:43:30;;;;;;;;;;;;;;;21.54;61.49;99724.22;7277358;19;153312;-57
2022/11/01 00:45:57;;;;;;;;;;;;;;;21.55;60.88;99721.06;7283907;19;152196;-58
2022/11/01 00:48:23;;;;;;;;;;;;;;;21.55;60.32;99729.50;7282173;19;153287;-58
2022/11/01 00:50:50;;;;;;;;;;;;;;;21.55;60.33;99709.00;7281729;19;154720;-58
2022/11/01 00:53:17;;;;;;;;;;;;;;;21.55;59.64;99709.81;7281643;19;153420;-58
2022/11/01 00:55:44;;;;;;;;;;;;;;;21.54;59.42;99711.00;7283656;19;153380;-58
2022/11/01 00:58:11;;;;;;;;;;;;;;;21.54;58.58;99696.94;7278374;19;152275;-58
2022/11/01 01:00:38;;;;;;;;;;;;;;;21.53;58.73;99678.41;7275166;19;152379;-58
2022/11/01 01:03:05;;;;;;;;;;;;;;;21.53;58.61;99674.81;7287997;19;152658;-58
2022/11/01 01:05:33;;;;;;;;;;;;;;;21.51;58.43;99675.16;7279855;19;153591;-57
2022/11/01 01:08:00;;;;;;;;;;;;;;;21.50;58.03;99667.88;7280292;19;152698;-58
2022/11/01 01:10:27;;;;;;;;;;;;;;;21.51;58.39;99671.53;7279397;19;154668;-57
2022/11/01 01:12:54;;;;;;;;;;;;;;;21.52;58.34;99665.56;7278001;19;152822;-58
2022/11/01 01:15:20;;;;;;;;;;;;;;;21.51;58.01;99624.56;7278921;19;153553;-58
2022/11/01 01:17:47;;;;;;;;;;;;;;;21.50;58.46;99644.56;7278928;19;153244;-58
2022/11/01 01:20:14;;;;;;;;;;;;;;;21.49;58.46;99610.03;7281580;19;152032;-57
2022/11/01 01:22:41;;;;;;;;;;;;;;;21.49;57.86;99609.19;7285715;19;152513;-57
2022/11/01 01:25:08;;;;;;;;;;;;;;;21.48;58.24;99621.63;7282666;19;152594;-57
2022/11/01 01:27:36;;;;;;;;;;;;;;;21.47;58.46;99612.38;7278120;19;151963;-58
2022/11/01 01:30:04;;;;;;;;;;;;;;;21.47;58.52;99603.13;7276611;19;154270;-57
2022/11/01 01:32:30;;;;;;;;;;;;;;;21.47;58.32;99600.31;7280605;19;153856;-58
2022/11/01 01:34:57;;;;;;;;;;;;;;;21.46;58.42;99605.13;7280791;19;152236;-57
2022/11/01 01:37:24;;;;;;;;;;;;;;;21.46;58.22;99593.88;7278959;19;153782;-57
2022/11/01 01:39:51;;;;;;;;;;;;;;;21.47;58.54;99597.50;7280670;19;151913;-58
2022/11/01 01:42:28;;;;;;;;;;;;;;;21.47;58.18;99589.06;7278366;19;153343;-57
2022/11/01 01:44:55;;;;;;;;;;;;;;;21.44;58.14;99589.78;7285839;19;153172;-58
2022/11/01 01:47:25;;;;;;;;;;;;;;;21.42;58.63;99614.59;7280621;19;153311;-58
2022/11/01 01:49:59;;;;;;;;;;;;;;;21.41;58.24;99601.69;7278800;19;152238;-59
2022/11/01 01:52:27;;;;;;;;;;;;;;;21.39;58.65;99602.06;7280309;19;152504;-58
2022/11/01 01:54:55;;;;;;;;;;;;;;;21.38;58.21;99605.22;7278594;19;153419;-57
2022/11/01 01:57:23;;;;;;;;;;;;;;;21.36;58.45;99597.13;7277959;19;153684;-59
2022/11/01 01:59:51;;;;;;;;;;;;;;;21.35;58.43;99594.69;7276868;19;152277;-57
2022/11/01 02:02:19;;;;;;;;;;;;;;;21.35;58.69;99597.47;7280191;19;152838;-57
2022/11/01 02:04:53;;;;;;;;;;;;;;;21.33;58.84;99622.28;7275733;19;153990;-58
2022/11/01 02:07:19;;;;;;;;;;;;;;;21.32;58.93;99621.47;7283613;19;152770;-58
2022/11/01 02:09:46;;;;;;;;;;;;;;;21.30;58.95;99632.25;7276874;19;154095;-57
2022/11/01 02:12:13;;;;;;;;;;;;;;;21.29;58.52;99644.63;7279180;19;153941;-58
2022/11/01 02:14:42;;;;;;;;;;;;;;;21.28;58.59;99642.97;7276518;19;152989;-57
2022/11/01 02:17:19;;;;;;;;;;;;;;;21.26;58.41;99679.00;7278906;19;154632;-58
2022/11/01 02:19:56;;;;;;;;;;;;;;;21.27;58.27;99675.88;7277190;19;152339;-58
2022/11/01 02:22:23;;;;;;;;;;;;;;;21.27;58.02;99692.72;7277953;19;153717;-58
2022/11/01 02:25:00;;;;;;;;;;;;;;;21.25;58.44;99694.25;7276927;19;154402;-58
2022/11/01 02:27:33;;;;;;;;;;;;;;;21.23;57.96;99699.38;7276920;19;152029;-57
2022/11/01 02:30:00;;;;;;;;;;;;;;;21.22;58.32;99706.97;7283075;19;153262;-57
2022/11/01 02:32:34;;;;;;;;;;;;;;;21.21;58.35;99741.84;7279257;19;152046;-57
2022/11/01 02:35:01;;;;;;;;;;;;;;;21.20;58.40;99765.50;7275385;19;153740;-57
2022/11/01 02:37:36;;;;;;;;;;;;;;;21.19;58.14;99765.84;7276685;19;153942;-57
2022/11/01 02:40:06;;;;;;;;;;;;;;;21.18;58.50;99765.00;7279882;19;153138;-58
2022/11/01 02:42:36;;;;;;;;;;;;;;;21.18;58.52;99789.47;7283693;19;153720;-58
2022/11/01 02:45:07;;;;;;;;;;;;;;;21.16;58.46;99786.19;7280803;19;152970;-57
2022/11/01 02:47:34;;;;;;;;;;;;;;;21.16;58.85;99789.00;7284995;19;152293;-57
2022/11/01 02:50:04;;;;;;;;;;;;;;;21.15;58.94;99807.00;7282537;19;154028;-58
2022/11/01 02:52:32;;;;;;;;;;;;;;;21.13;58.84;99818.59;7292728;19;153914;-58
2022/11/01 02:55:02;;;;;;;;;;;;;;;21.13;58.70;99834.59;7283877;19;152687;-58
2022/11/01 02:57:30;;;;;;;;;;;;;;;21.11;58.66;99848.16;7281490;19;155249;-58
2022/11/01 03:00:03;;;;;;;;;;;;;;;21.10;58.34;99846.50;7284033;19;152112;-58
2022/11/01 03:02:38;;;;;;;;;;;;;;;21.09;58.27;99861.69;7285736;19;153539;-58
2022/11/01 03:05:15;;;;;;;;;;;;;;;21.08;58.07;99880.53;7282759;19;152474;-57
2022/11/01 03:07:44;;;;;;;;;;;;;;;21.06;58.22;99860.41;7286407;19;151849;-57
2022/11/01 03:10:12;;;;;;;;;;;;;;;21.04;57.93;99862.72;7284421;19;153466;-57
2022/11/01 03:12:50;;;;;;;;;;;;;;;21.05;58.03;99894.44;7278705;19;152442;-57
2022/11/01 03:15:25;;;;;;;;;;;;;;;21.02;58.18;99911.97;7292263;19;152989;-58
2022/11/01 03:17:58;;;;;;;;;;;;;;;21.02;57.98;99903.53;7284884;19;154727;-58
2022/11/01 03:20:46;;;;;;;;;;;;;;;21.00;58.14;99931.13;7283045;19;152179;-57
2022/11/01 03:23:16;;;;;;;;;;;;;;;20.99;57.92;99960.34;7285097;19;153151;-57
2022/11/01 03:25:46;;;;;;;;;;;;;;;20.98;57.62;99964.34;7283514;19;154685;-57
2022/11/01 03:28:23;;;;;;;;;;;;;;;20.96;58.10;99975.91;7282091;19;152232;-58
2022/11/01 03:30:54;;;;;;;;;;;;;;;20.95;57.85;100010.75;7282624;19;153693;-57
2022/11/01 03:33:23;;;;;;;;;;;;;;;20.95;57.48;99999.53;7280820;19;154140;-58
2022/11/01 03:35:53;;;;;;;;;;;;;;;20.96;57.26;100020.00;7293712;19;152720;-57
2022/11/01 03:38:22;;;;;;;;;;;;;;;20.91;56.92;100021.00;7284042;19;152854;-57
2022/11/01 03:40:52;;;;;;;;;;;;;;;20.90;57.16;100041.00;7285472;19;152203;-57
2022/11/01 03:43:22;;;;;;;;;;;;;;;20.88;56.96;100032.94;7279978;19;153361;-57
2022/11/01 03:45:50;;;;;;;;;;;;;;;20.88;57.29;100048.94;7280473;19;153006;-57
2022/11/01 03:48:16;;;;;;;;;;;;;;;20.88;57.04;100069.44;7282242;19;152819;-58
2022/11/01 03:50:48;;;;;;;;;;;;;;;20.85;57.44;100065.28;7283330;19;153598;-57
2022/11/01 03:53:15;;;;;;;;;;;;;;;20.85;57.44;100070.06;7278941;19;153015;-57
2022/11/01 03:55:42;;;;;;;;;;;;;;;20.83;56.93;100066.78;7283540;19;152199;-57
2022/11/01 03:58:09;;;;;;;;;;;;;;;20.83;57.35;100086.44;7286479;19;153157;-57
2022/11/01 04:00:38;;;;;;;;;;;;;;;20.80;56.92;100101.94;7283201;19;152208;-57
2022/11/01 04:03:05;;;;;;;;;;;;;;;20.79;56.82;100116.34;7283824;19;154148;-58
2022/11/01 04:05:34;;;;;;;;;;;;;;;20.79;56.94;100116.34;7280634;19;154033;-57
2022/11/01 04:08:01;;;;;;;;;;;;;;;20.78;56.77;100132.34;7284506;19;152589;-58
2022/11/01 04:10:28;;;;;;;;;;;;;;;20.76;56.70;100125.41;7282352;19;153309;-58
2022/11/01 04:12:55;;;;;;;;;;;;;;;20.75;57.10;100152.69;7278033;19;152923;-58
2022/11/01 04:20:40;;;;;;;;;;;;;;;20.72;56.94;100167.34;7288519;19;152672;-57
2022/11/01 04:23:07;;;;;;;;;;;;;;;20.72;57.14;100169.31;7282773;19;152306;-58
2022/11/01 04:25:34;;;;;;;;;;;;;;;20.71;57.20;100173.31;7281969;19;153191;-58
2022/11/01 04:28:01;;;;;;;;;;;;;;;20.70;57.37;100183.72;7281398;19;152166;-58
2022/11/01 04:30:28;;;;;;;;;;;;;;;20.70;57.03;100202.53;7282291;19;152247;-58
2022/11/01 04:32:55;;;;;;;;;;;;;;;20.70;57.09;100199.72;7279911;19;153953;-57
2022/11/01 04:35:22;;;;;;;;;;;;;;;20.69;57.53;100214.91;7282460;19;152155;-58
2022/11/01 04:37:59;;;;;;;;;;;;;;;20.68;57.43;100225.31;7282781;19;152928;-58
2022/11/01 04:40:26;;;;;;;;;;;;;;;20.67;57.23;100220.03;7282601;19;154095;-57
2022/11/01 04:42:53;;;;;;;;;;;;;;;20.64;57.41;100227.13;7288841;19;152236;-58
2022/11/01 04:45:20;;;;;;;;;;;;;;;20.64;57.15;100232.72;7278289;19;154257;-58
2022/11/01 04:47:51;;;;;;;;;;;;;;;20.64;57.42;100229.91;7283097;19;151799;-58
2022/11/01 04:50:19;;;;;;;;;;;;;;;20.64;57.34;100234.72;7282796;19;153169;-57
2022/11/01 04:52:46;;;;;;;;;;;;;;;20.62;57.26;100254.69;7280826;19;152643;-58
2022/11/01 04:55:13;;;;;;;;;;;;;;;20.62;57.37;100239.84;7279888;19;152911;-57
2022/11/01 04:57:41;;;;;;;;;;;;;;;20.62;57.66;100249.09;7280109;19;152700;-57
2022/11/01 05:00:10;;;;;;;;;;;;;;;20.61;57.29;100250.22;7279380;19;153160;-57
2022/11/01 05:02:37;;;;;;;;;;;;;;;20.61;57.68;100281.09;7280307;19;152493;-58
2022/11/01 05:05:05;;;;;;;;;;;;;;;20.60;57.68;100273.84;7284828;19;152796;-58
2022/11/01 05:07:33;;;;;;;;;;;;;;;20.60;57.42;100278.63;7277405;19;153676;-57
2022/11/01 05:10:00;;;;;;;;;;;;;;;20.59;57.67;100265.72;7282781;19;152592;-58
2022/11/01 05:12:26;;;;;;;;;;;;;;;20.58;57.62;100286.56;7280251;19;153645;-58
2022/11/01 05:14:53;;;;;;;;;;;;;;;20.58;57.36;100283.75;7277381;19;152108;-59
2022/11/01 05:17:22;;;;;;;;;;;;;;;20.58;57.60;100292.97;7281648;19;152486;-58
2022/11/01 05:19:49;;;;;;;;;;;;;;;20.57;57.91;100298.91;7278944;19;154255;-58
2022/11/01 05:22:16;;;;;;;;;;;;;;;20.56;57.53;100297.25;7281936;19;152445;-58
2022/11/01 05:24:45;;;;;;;;;;;;;;;20.55;57.38;100290.00;7278945;19;154295;-58
2022/11/01 05:27:12;;;;;;;;;;;;;;;20.56;57.91;100308.50;7285953;19;152306;-58
2022/11/01 05:29:39;;;;;;;;;;;;;;;20.55;57.90;100304.84;7279662;19;152260;-58
2022/11/01 05:32:05;;;;;;;;;;;;;;;20.54;57.58;100303.19;7281722;19;152466;-58
2022/11/01 05:34:32;;;;;;;;;;;;;;;20.52;57.64;100302.69;7279702;19;152420;-58
2022/11/01 05:36:59;;;;;;;;;;;;;;;20.53;58.10;100292.31;7281246;19;152046;-58
2022/11/01 05:39:26;;;;;;;;;;;;;;;20.52;58.01;100297.09;7279430;19;152690;-59
2022/11/01 05:41:53;;;;;;;;;;;;;;;20.53;58.29;100311.94;7278570;19;152475;-58
2022/11/01 05:44:27;;;;;;;;;;;;;;;20.51;58.10;100312.25;7278422;19;154367;-58
2022/11/01 05:46:53;;;;;;;;;;;;;;;20.52;58.06;100311.13;7287440;19;152772;-59
2022/11/01 05:49:21;;;;;;;;;;;;;;;20.51;58.43;100309.47;7281063;19;152607;-57
2022/11/01 05:51:48;;;;;;;;;;;;;;;20.51;58.50;100314.25;7278684;19;154392;-58
2022/11/01 05:54:15;;;;;;;;;;;;;;;20.52;58.94;100307.47;7280523;19;152445;-58
2022/11/01 05:56:42;;;;;;;;;;;;;;;20.54;58.89;100314.41;7279477;19;152041;-58
2022/11/01 05:59:09;;;;;;;;;;;;;;;20.59;59.51;100310.63;7279109;19;153592;-58
2022/11/01 06:01:36;;;;;;;;;;;;;;;20.60;59.52;100298.25;7281295;19;152058;-57
2022/11/01 06:04:03;;;;;;;;;;;;;;;20.62;59.60;100302.41;7280860;19;154077;-58
2022/11/01 06:06:30;;;;;;;;;;;;;;;20.65;60.00;100298.94;7276962;19;153563;-57
2022/11/01 06:08:58;;;;;;;;;;;;;;;20.72;60.60;100304.06;7285884;19;152069;-58
2022/11/01 06:11:25;;;;;;;;;;;;;;;20.75;61.08;100312.69;7277540;19;152422;-57
2022/11/01 06:13:54;;;;;;;;;;;;;;;20.78;61.07;100314.84;7279081;19;153262;-57
2022/11/01 06:16:21;;;;;;;;;;;;;;;20.83;61.10;100300.66;7283141;19;152849;-58
2022/11/01 06:18:48;;;;;;;;;;;;;;;20.89;61.42;100297.69;7285177;19;153430;-58
2022/11/01 06:21:15;;;;;;;;;;;;;;;20.94;61.61;100311.59;7285486;19;152418;-58
2022/11/01 06:23:46;;;;;;;;;;;;;;;20.97;61.71;100306.16;7286016;19;152954;-58
2022/11/01 06:26:13;;;;;;;;;;;;;;;21.02;61.74;100311.59;7283180;19;154162;-58
2022/11/01 06:28:40;;;;;;;;;;;;;;;21.06;61.85;100304.19;7284651;19;153049;-57
2022/11/01 06:31:07;;;;;;;;;;;;;;;21.09;61.41;100308.31;7293460;19;153458;-58
2022/11/01 06:33:34;;;;;;;;;;;;;;;21.14;62.11;100319.41;7286439;19;152013;-58
2022/11/01 06:36:01;;;;;;;;;;;;;;;21.17;61.58;100313.97;7284270;19;151996;-58
2022/11/01 06:38:28;;;;;;;;;;;;;;;21.20;61.46;100312.50;7285079;19;153937;-58
2022/11/01 06:40:55;;;;;;;;;;;;;;;21.23;61.69;100306.22;7286559;19;151979;-58
2022/11/01 06:43:22;;;;;;;;;;;;;;;21.26;61.68;100309.19;7283067;19;152907;-59
2022/11/01 06:45:49;;;;;;;;;;;;;;;21.29;61.41;100310.53;7282915;19;154487;-58
2022/11/01 06:48:16;;;;;;;;;;;;;;;21.32;61.44;100311.84;7283991;19;151981;-58
2022/11/01 06:50:43;;;;;;;;;;;;;;;21.34;61.33;100307.56;7286095;19;152701;-58
2022/11/01 06:53:10;;;;;;;;;;;;;;;21.36;61.21;100324.91;7292130;19;152377;-58
2022/11/01 06:55:37;;;;;;;;;;;;;;;21.40;61.28;100323.06;7283980;19;153006;-58
2022/11/01 06:58:03;;;;;;;;;;;;;;;21.41;60.90;100313.50;7282928;19;152750;-58
2022/11/01 07:00:31;;;;;;;;;;;;;;;21.43;61.32;100325.25;7284845;19;152578;-58
2022/11/01 07:03:00;;;;;;;;;;;;;;;21.45;60.68;100330.53;7286879;19;153685;-59
2022/11/01 07:05:28;;;;;;;;;;;;;;;21.46;60.72;100330.19;7280598;19;152702;-58
2022/11/01 07:08:02;;;;;;;;;;;;;;;21.49;61.16;100340.78;7286834;19;152771;-58
2022/11/01 07:10:29;;;;;;;;;;;;;;;21.50;60.67;100334.00;7283532;19;155286;-58
2022/11/01 07:12:57;;;;;;;;;;;;;;;21.51;60.83;100352.53;7282106;19;153118;-59
2022/11/01 07:15:24;;;;;;;;;;;;;;;21.52;60.80;100362.63;7290369;19;152166;-58
2022/11/01 07:17:55;;;;;;;;;;;;;;;21.55;61.02;100349.88;7284706;19;153952;-59
2022/11/01 07:20:23;;;;;;;;;;;;;;;21.59;61.31;100373.34;7281723;19;152323;-58
2022/11/01 07:22:59;;;;;;;;;;;;;;;21.48;59.95;100366.41;7285889;19;152319;-58
2022/11/01 07:25:27;;;;;;;;;;;;;;;21.39;57.43;100376.81;7283206;19;152633;-58
2022/11/01 07:27:54;;;;;;;;;;;;;;;21.12;56.66;100386.31;7282346;19;152348;-58
2022/11/01 07:30:21;;;;;;;;;;;;;;;20.95;56.59;100377.81;7281171;19;153254;-58
2022/11/01 07:32:53;;;;;;;;;;;;;;;20.88;57.10;100369.88;7284845;19;154362;-58
2022/11/01 07:35:20;;;;;;;;;;;;;;;20.97;57.36;100381.97;7290501;19;152067;-57
2022/11/01 07:37:47;;;;;;;;;;;;;;;21.02;57.70;100376.22;7283030;19;152723;-58
2022/11/01 07:40:14;;;;;;;;;;;;;;;21.04;57.81;100371.06;7285124;19;152013;-58
2022/11/01 07:42:42;;;;;;;;;;;;;;;21.06;57.60;100374.41;7283780;19;153039;-58
2022/11/01 07:45:10;;;;;;;;;;;;;;;21.06;57.54;100390.41;7279975;19;153960;-58
2022/11/01 07:47:38;;;;;;;;;;;;;;;21.08;57.91;100408.59;7282635;19;152141;-57
2022/11/01 07:50:06;;;;;;;;;;;;;;;21.13;57.81;100397.25;7284561;19;153921;-58
2022/11/01 07:52:36;;;;;;;;;;;;;;;21.14;58.23;100384.03;7281322;19;153280;-57
2022/11/01 07:55:03;;;;;;;;;;;;;;;21.14;58.73;100378.41;7283548;19;151745;-58
2022/11/01 07:57:30;;;;;;;;;;;;;;;21.14;59.22;100390.47;7286478;19;152533;-59
2022/11/01 07:59:57;;;;;;;;;;;;;;;21.13;58.50;100382.38;7283364;19;152531;-58
2022/11/01 08:02:24;;;;;;;;;;;;;;;21.15;58.63;100380.06;7283367;19;153462;-58
2022/11/01 08:04:51;;;;;;;;;;;;;;;21.15;58.59;100392.13;7281123;19;153925;-58
2022/11/01 08:07:18;;;;;;;;;;;;;;;21.16;58.48;100392.97;7278304;19;151881;-58
2022/11/01 08:09:46;;;;;;;;;;;;;;;21.17;58.92;100395.44;7283022;19;153350;-58
2022/11/01 08:12:13;;;;;;;;;;;;;;;21.19;58.87;100409.16;7279636;19;153458;-59
2022/11/01 08:14:40;;;;;;;;;;;;;;;21.20;59.01;100422.91;7281330;19;152119;-58
2022/11/01 08:17:07;;;;;;;;;;;;;;;21.23;58.85;100421.41;7281158;19;153260;-58
2022/11/01 08:19:34;;;;;;;;;;;;;;;21.24;58.69;100412.66;7285661;19;154143;-58
2022/11/01 08:22:02;;;;;;;;;;;;;;;21.27;59.08;100425.22;7282590;19;153968;-58
2022/11/01 08:24:29;;;;;;;;;;;;;;;21.29;58.82;100415.31;7283580;19;153835;-58
2022/11/01 08:26:56;;;;;;;;;;;;;;;21.32;58.85;100419.44;7279643;19;154042;-58
2022/11/01 08:29:23;;;;;;;;;;;;;;;21.32;58.99;100411.00;7282503;19;152583;-58
2022/11/01 08:31:52;;;;;;;;;;;;;;;21.35;58.88;100415.97;7282191;19;153279;-58
2022/11/01 08:34:19;;;;;;;;;;;;;;;21.36;58.92;100420.44;7281171;19;151860;-58
2022/11/01 08:36:46;;;;;;;;;;;;;;;21.42;58.91;100426.75;7277723;19;153653;-59
2022/11/01 08:39:13;;;;;;;;;;;;;;;21.45;58.79;100437.31;7279678;19;153776;-58
2022/11/01 08:41:40;;;;;;;;;;;;;;;21.48;58.57;100436.69;7288751;19;152177;-58
2022/11/01 08:44:10;;;;;;;;;;;;;;;21.46;58.82;100431.38;7279662;19;153579;-58
2022/11/01 08:46:36;;;;;;;;;;;;;;;21.45;58.76;100424.09;7281746;19;151922;-58
2022/11/01 08:49:04;;;;;;;;;;;;;;;21.47;58.46;100420.97;7283240;19;152598;-58
2022/11/01 08:51:31;;;;;;;;;;;;;;;21.47;58.87;100409.72;7279521;19;153829;-59
2022/11/01 08:53:58;;;;;;;;;;;;;;;21.46;58.57;100420.16;7282581;19;152585;-58
2022/11/01 08:56:26;;;;;;;;;;;;;;;21.47;58.54;100416.19;7278116;19;152700;-58
2022/11/01 08:58:53;;;;;;;;;;;;;;;21.48;58.72;100419.81;7277338;19;154141;-58
2022/11/01 09:01:22;;;;;;;;;;;;;;;21.49;58.71;100435.50;7282216;19;152342;-58
2022/11/01 09:03:49;;;;;;;;;;;;;;;21.50;58.62;100435.19;7286382;19;154171;-58
2022/11/01 09:06:16;;;;;;;;;;;;;;;21.52;58.45;100440.50;7280624;19;152642;-58
2022/11/01 09:08:43;;;;;;;;;;;;;;;21.50;58.12;100429.56;7281459;19;152320;-58
2022/11/01 09:11:10;;;;;;;;;;;;;;;21.50;58.51;100429.56;7279925;19;152447;-58
2022/11/01 09:13:37;;;;;;;;;;;;;;;21.50;58.00;100432.38;7279811;19;152148;-58
2022/11/01 09:16:05;;;;;;;;;;;;;;;21.49;57.93;100427.91;7280062;19;154326;-58
2022/11/01 09:18:33;;;;;;;;;;;;;;;21.49;58.09;100427.06;7278588;19;153054;-58
2022/11/01 09:21:00;;;;;;;;;;;;;;;21.48;57.87;100425.44;7281487;19;152537;-58
2022/11/01 09:23:27;;;;;;;;;;;;;;;21.49;58.19;100410.22;7281997;19;153369;-58
2022/11/01 09:26:00;;;;;;;;;;;;;;;21.49;58.24;100422.28;7284648;19;154736;-58
2022/11/01 09:28:28;;;;;;;;;;;;;;;21.49;58.03;100435.50;7279094;19;152871;-58
2022/11/01 09:31:02;;;;;;;;;;;;;;;21.49;58.16;100446.75;7277979;19;153605;-58
2022/11/01 09:33:46;;;;;;;;;;;;;;;21.48;58.08;100453.56;7282027;19;152016;-58
2022/11/01 09:36:13;;;;;;;;;;;;;;;21.46;58.56;100462.31;7280547;19;152580;-59
2022/11/01 09:38:40;;;;;;;;;;;;;;;21.46;58.71;100459.50;7279094;19;153701;-57
2022/11/01 09:41:16;;;;;;;;;;;;;;;21.46;58.66;100453.88;7277450;19;153278;-57
2022/11/01 09:43:44;;;;;;;;;;;;;;;21.46;58.35;100464.28;7278511;19;153421;-58
2022/11/01 09:46:14;;;;;;;;;;;;;;;21.44;58.56;100461.78;7286721;19;152704;-61
2022/11/01 09:48:43;;;;;;;;;;;;;;;21.43;58.52;100454.53;7281430;19;152056;-57
2022/11/01 09:51:15;;;;;;;;;;;;;;;21.42;58.56;100460.47;7281573;19;153237;-58
2022/11/01 09:53:42;;;;;;;;;;;;;;;21.42;58.68;100472.56;7286131;19;152237;-57
2022/11/01 09:56:14;;;;;;;;;;;;;;;21.42;58.75;100475.34;7284362;19;153002;-58
2022/11/01 09:58:50;;;;;;;;;;;;;;;21.41;58.76;100481.28;7283735;19;155063;-58
2022/11/01 10:01:24;;;;;;;;;;;;;;;21.40;58.74;100477.66;7287323;19;151944;-58
2022/11/01 10:04:01;;;;;;;;;;;;;;;21.40;58.89;100488.06;7286887;19;152773;-58
2022/11/01 10:06:38;;;;;;;;;;;;;;;21.37;59.13;100494.34;7282420;19;154104;-58
2022/11/01 10:09:06;;;;;;;;;;;;;;;21.38;59.00;100496.00;7292948;19;151981;-58
2022/11/01 10:11:46;;;;;;;;;;;;;;;21.36;59.18;100489.88;7285722;19;154391;-58
2022/11/01 10:14:23;;;;;;;;;;;;;;;21.37;59.19;100488.72;7284609;19;151909;-58
2022/11/01 10:16:58;;;;;;;;;;;;;;;21.36;58.95;100487.06;7285081;19;153182;-58
2022/11/01 10:19:31;;;;;;;;;;;;;;;21.34;58.96;100483.75;7285575;19;154046;-58
2022/11/01 10:22:03;;;;;;;;;;;;;;;21.33;58.71;100491.38;7288016;19;153979;-59
2022/11/01 10:24:40;;;;;;;;;;;;;;;21.34;58.78;100489.38;7286353;19;153300;-58
2022/11/01 10:27:10;;;;;;;;;;;;;;;21.32;59.00;100494.50;7283440;19;154585;-57
2022/11/01 10:29:40;;;;;;;;;;;;;;;21.34;59.21;100489.38;7285709;19;152692;-58
2022/11/01 10:32:18;;;;;;;;;;;;;;;21.32;59.01;100503.75;7293819;19;153990;-58
2022/11/01 10:34:45;;;;;;;;;;;;;;;21.34;58.77;100509.06;7285574;19;151654;-58
2022/11/01 10:37:20;;;;;;;;;;;;;;;21.34;58.96;100504.28;7283893;19;152463;-58
2022/11/01 10:39:54;;;;;;;;;;;;;;;21.34;58.91;100512.69;7285580;19;153757;-58
2022/11/01 10:42:27;;;;;;;;;;;;;;;21.32;59.09;100500.94;7283566;19;152838;-58
2022/11/01 10:44:57;;;;;;;;;;;;;;;21.29;59.15;100507.22;7284526;19;153638;-58
2022/11/01 10:47:24;;;;;;;;;;;;;;;21.28;58.83;100509.19;7282992;19;154407;-58
2022/11/01 10:49:51;;;;;;;;;;;;;;;21.28;59.16;100523.25;7285500;19;152136;-58
2022/11/01 10:52:39;;;;;;;;;;;;;;;21.26;58.96;100505.88;7286163;19;155352;-58
2022/11/01 10:55:10;;;;;;;;;;;;;;;21.27;58.89;100512.31;7292719;19;154252;-58
2022/11/01 10:57:39;;;;;;;;;;;;;;;21.27;58.72;100501.91;7280235;19;153961;-58
2022/11/01 11:00:13;;;;;;;;;;;;;;;21.27;59.02;100503.88;7283080;19;152660;-58
2022/11/01 11:02:46;;;;;;;;;;;;;;;21.25;58.58;100503.41;7285059;19;153133;-58
2022/11/01 11:05:14;;;;;;;;;;;;;;;21.23;58.80;100514.97;7285678;19;153431;-58
2022/11/01 11:07:42;;;;;;;;;;;;;;;21.23;58.62;100503.72;7279800;19;154562;-58
2022/11/01 11:10:18;;;;;;;;;;;;;;;21.22;58.84;100499.25;7285090;19;151921;-58
2022/11/01 11:12:51;;;;;;;;;;;;;;;21.23;58.32;100514.13;7283366;19;152577;-58
2022/11/01 11:15:21;;;;;;;;;;;;;;;21.21;58.72;100502.41;7282248;19;154191;-57
2022/11/01 11:17:53;;;;;;;;;;;;;;;21.19;58.85;100502.72;7291106;19;152068;-57
2022/11/01 11:20:24;;;;;;;;;;;;;;;21.21;58.65;100499.59;7282106;19;152518;-58
2022/11/01 11:22:51;;;;;;;;;;;;;;;21.21;58.54;100493.97;7284144;19;151982;-58
2022/11/01 11:25:20;;;;;;;;;;;;;;;21.19;58.85;100491.47;7286311;19;153809;-58
2022/11/01 11:27:48;;;;;;;;;;;;;;;21.19;58.52;100490.63;7283279;19;153934;-58
2022/11/01 11:30:32;;;;;;;;;;;;;;;21.18;58.99;100494.59;7283333;19;152684;-58
2022/11/01 11:33:00;;;;;;;;;;;;;;;21.18;58.51;100503.03;7282326;19;154184;-58
2022/11/01 11:35:31;;;;;;;;;;;;;;;21.19;58.71;100487.84;7284403;19;153446;-58
2022/11/01 11:37:58;;;;;;;;;;;;;;;21.18;58.12;100498.25;7282533;19;152262;-58
2022/11/01 11:40:26;;;;;;;;;;;;;;;21.20;57.87;100495.13;7290011;19;152604;-58
2022/11/01 11:42:54;;;;;;;;;;;;;;;21.20;57.90;100501.56;7283603;19;152551;-58
2022/11/01 11:45:23;;;;;;;;;;;;;;;21.20;57.71;100495.13;7283934;19;153474;-58
2022/11/01 11:47:50;;;;;;;;;;;;;;;21.19;57.95;100499.91;7281042;19;153979;-57
2022/11/01 11:50:18;;;;;;;;;;;;;;;21.17;57.66;100505.00;7284207;19;152068;-57
2022/11/01 11:52:48;;;;;;;;;;;;;;;21.16;57.97;100494.94;7284450;19;153149;-58
2022/11/01 11:55:24;;;;;;;;;;;;;;;21.15;58.15;100490.47;7280717;19;153256;-57
2022/11/01 11:57:52;;;;;;;;;;;;;;;21.17;57.72;100479.72;7276404;19;152135;-58
2022/11/01 12:00:21;;;;;;;;;;;;;;;21.15;57.82;100481.22;7288146;19;153018;-58
2022/11/01 12:02:49;;;;;;;;;;;;;;;21.14;57.87;100479.53;7284189;19;152167;-57
2022/11/01 12:05:17;;;;;;;;;;;;;;;21.15;58.08;100486.81;7281762;19;154510;-58
2022/11/01 12:07:47;;;;;;;;;;;;;;;21.12;58.03;100488.25;7279670;19;152653;-57
2022/11/01 12:10:24;;;;;;;;;;;;;;;21.14;57.70;100482.34;7283512;19;152449;-57
2022/11/01 12:12:51;;;;;;;;;;;;;;;21.13;57.51;100483.50;7282354;19;153351;-57
2022/11/01 12:15:28;;;;;;;;;;;;;;;21.10;57.87;100470.06;7278091;19;153564;-58
2022/11/01 12:17:55;;;;;;;;;;;;;;;21.09;57.83;100479.66;7282229;19;151892;-58
2022/11/01 12:20:24;;;;;;;;;;;;;;;21.09;57.42;100480.47;7281426;19;153033;-57
2022/11/01 12:23:01;;;;;;;;;;;;;;;21.09;57.41;100476.84;7290753;19;154174;-58
2022/11/01 12:25:28;;;;;;;;;;;;;;;21.05;57.30;100482.28;7281646;19;152723;-58
2022/11/01 12:27:58;;;;;;;;;;;;;;;21.04;57.26;100491.03;7280581;19;152902;-58
2022/11/01 12:30:27;;;;;;;;;;;;;;;21.02;57.26;100484.91;7280470;19;152092;-58
2022/11/01 12:32:57;;;;;;;;;;;;;;;20.99;57.43;100474.31;7283773;19;152041;-58
2022/11/01 12:35:24;;;;;;;;;;;;;;;20.99;56.96;100480.75;7281393;19;152769;-58
2022/11/01 12:37:58;;;;;;;;;;;;;;;20.98;57.46;100469.88;7280241;19;151822;-58
2022/11/01 12:40:29;;;;;;;;;;;;;;;20.96;57.19;100483.38;7283017;19;154141;-58
2022/11/01 12:43:00;;;;;;;;;;;;;;;20.93;57.73;100479.25;7280431;19;153240;-58
2022/11/01 12:45:40;;;;;;;;;;;;;;;20.91;57.27;100494.75;7287594;19;152411;-58